sensor_id;sensor_type;location;lat;lon;timestamp;P1;durP1;ratioP1;P2;durP2;ratioP2
35026;SDS011;60696;51.426;6.934;2023-03-14T00:00:27;7.55;;;1.00;;
35026;SDS011;60696;51.426;6.934;2023-03-14T00:02:53;4.47;;;0.73;;
35026;SDS011;60696;51.426;6.934;2023-03-14T00:05:19;2.17;;;0.57;;
35026;SDS011;60696;51.426;6.934;2023-03-14T00:07:44;8.63;;;1.35;;
35026;SDS011;60696;51.426;6.934;2023-03-14T00:10:12;3.90;;;0.88;;
35026;SDS011;60696;51.426;6.934;2023-03-14T00:12:39;9.20;;;1.00;;
35026;SDS011;60696;51.426;6.934;2023-03-14T00:15:05;4.45;;;0.95;;
35026;SDS011;60696;51.426;6.934;2023-03-14T00:17:32;2.75;;;0.93;;
35026;SDS011;60696;51.426;6.934;2023-03-14T00:19:59;3.20;;;0.85;;
35026;SDS011;60696;51.426;6.934;2023-03-14T00:22:30;5.85;;;0.90;;
35026;SDS011;60696;51.426;6.934;2023-03-14T00:24:57;6.72;;;1.25;;
35026;SDS011;60696;51.426;6.934;2023-03-14T00:27:22;1.15;;;0.40;;
35026;SDS011;60696;51.426;6.934;2023-03-14T00:29:48;5.53;;;0.75;;
35026;SDS011;60696;51.426;6.934;2023-03-14T00:32:13;2.83;;;0.63;;
35026;SDS011;60696;51.426;6.934;2023-03-14T00:34:39;3.88;;;0.85;;
35026;SDS011;60696;51.426;6.934;2023-03-14T00:37:05;3.60;;;0.85;;
35026;SDS011;60696;51.426;6.934;2023-03-14T00:39:30;5.38;;;1.13;;
35026;SDS011;60696;51.426;6.934;2023-03-14T00:41:56;8.57;;;0.95;;
35026;SDS011;60696;51.426;6.934;2023-03-14T00:44:22;3.35;;;0.60;;
35026;SDS011;60696;51.426;6.934;2023-03-14T00:46:47;2.97;;;0.60;;
35026;SDS011;60696;51.426;6.934;2023-03-14T00:49:13;1.30;;;0.40;;
35026;SDS011;60696;51.426;6.934;2023-03-14T00:51:38;5.60;;;0.75;;
35026;SDS011;60696;51.426;6.934;2023-03-14T00:54:04;4.43;;;1.02;;
35026;SDS011;60696;51.426;6.934;2023-03-14T00:56:30;3.28;;;0.40;;
35026;SDS011;60696;51.426;6.934;2023-03-14T00:58:55;4.43;;;0.50;;
35026;SDS011;60696;51.426;6.934;2023-03-14T01:01:21;3.40;;;0.50;;
35026;SDS011;60696;51.426;6.934;2023-03-14T01:03:50;5.13;;;0.35;;
35026;SDS011;60696;51.426;6.934;2023-03-14T01:06:18;4.53;;;0.50;;
35026;SDS011;60696;51.426;6.934;2023-03-14T01:08:45;4.38;;;0.50;;
35026;SDS011;60696;51.426;6.934;2023-03-14T01:11:12;2.03;;;0.50;;
35026;SDS011;60696;51.426;6.934;2023-03-14T01:13:43;3.35;;;0.30;;
35026;SDS011;60696;51.426;6.934;2023-03-14T01:16:09;1.33;;;0.20;;
35026;SDS011;60696;51.426;6.934;2023-03-14T01:18:36;1.38;;;0.43;;
35026;SDS011;60696;51.426;6.934;2023-03-14T01:21:03;2.75;;;0.35;;
35026;SDS011;60696;51.426;6.934;2023-03-14T01:23:34;1.65;;;0.40;;
35026;SDS011;60696;51.426;6.934;2023-03-14T01:26:00;3.47;;;0.32;;
35026;SDS011;60696;51.426;6.934;2023-03-14T01:28:25;4.75;;;0.57;;
35026;SDS011;60696;51.426;6.934;2023-03-14T01:30:51;2.70;;;0.47;;
35026;SDS011;60696;51.426;6.934;2023-03-14T01:33:17;2.58;;;0.60;;
35026;SDS011;60696;51.426;6.934;2023-03-14T01:35:42;3.67;;;0.60;;
35026;SDS011;60696;51.426;6.934;2023-03-14T01:38:08;2.35;;;0.52;;
35026;SDS011;60696;51.426;6.934;2023-03-14T01:40:33;3.70;;;0.55;;
35026;SDS011;60696;51.426;6.934;2023-03-14T01:43:11;3.03;;;0.43;;
35026;SDS011;60696;51.426;6.934;2023-03-14T01:48:28;5.60;;;0.60;;
35026;SDS011;60696;51.426;6.934;2023-03-14T01:51:19;2.90;;;0.32;;
35026;SDS011;60696;51.426;6.934;2023-03-14T01:53:50;1.67;;;0.30;;
35026;SDS011;60696;51.426;6.934;2023-03-14T01:56:18;2.97;;;0.50;;
35026;SDS011;60696;51.426;6.934;2023-03-14T01:58:45;4.22;;;0.98;;
35026;SDS011;60696;51.426;6.934;2023-03-14T02:01:14;2.45;;;0.32;;
35026;SDS011;60696;51.426;6.934;2023-03-14T02:03:46;2.35;;;0.40;;
35026;SDS011;60696;51.426;6.934;2023-03-14T02:06:19;4.00;;;0.63;;
35026;SDS011;60696;51.426;6.934;2023-03-14T02:08:51;3.03;;;0.50;;
35026;SDS011;60696;51.426;6.934;2023-03-14T02:11:17;4.70;;;0.63;;
35026;SDS011;60696;51.426;6.934;2023-03-14T02:13:44;4.60;;;0.68;;
35026;SDS011;60696;51.426;6.934;2023-03-14T02:16:10;3.20;;;0.65;;
35026;SDS011;60696;51.426;6.934;2023-03-14T02:18:36;4.00;;;0.60;;
35026;SDS011;60696;51.426;6.934;2023-03-14T02:21:11;2.47;;;0.57;;
35026;SDS011;60696;51.426;6.934;2023-03-14T02:23:58;3.42;;;0.77;;
35026;SDS011;60696;51.426;6.934;2023-03-14T02:26:43;6.55;;;1.25;;
35026;SDS011;60696;51.426;6.934;2023-03-14T02:29:28;3.67;;;0.88;;
35026;SDS011;60696;51.426;6.934;2023-03-14T02:31:55;1.65;;;0.40;;
35026;SDS011;60696;51.426;6.934;2023-03-14T02:34:21;3.83;;;0.63;;
35026;SDS011;60696;51.426;6.934;2023-03-14T02:36:46;3.55;;;0.85;;
35026;SDS011;60696;51.426;6.934;2023-03-14T02:39:18;2.17;;;0.50;;
35026;SDS011;60696;51.426;6.934;2023-03-14T02:41:49;4.75;;;1.13;;
35026;SDS011;60696;51.426;6.934;2023-03-14T02:44:15;3.63;;;0.68;;
35026;SDS011;60696;51.426;6.934;2023-03-14T02:46:41;1.63;;;0.47;;
35026;SDS011;60696;51.426;6.934;2023-03-14T02:49:07;5.82;;;0.70;;
35026;SDS011;60696;51.426;6.934;2023-03-14T02:51:35;5.68;;;1.08;;
35026;SDS011;60696;51.426;6.934;2023-03-14T02:54:01;3.33;;;0.80;;
35026;SDS011;60696;51.426;6.934;2023-03-14T02:56:27;1.50;;;0.32;;
35026;SDS011;60696;51.426;6.934;2023-03-14T02:58:52;8.18;;;0.73;;
35026;SDS011;60696;51.426;6.934;2023-03-14T03:01:18;4.20;;;0.60;;
35026;SDS011;60696;51.426;6.934;2023-03-14T03:03:44;7.85;;;0.70;;
35026;SDS011;60696;51.426;6.934;2023-03-14T03:06:09;4.40;;;0.60;;
35026;SDS011;60696;51.426;6.934;2023-03-14T03:08:35;5.20;;;0.63;;
35026;SDS011;60696;51.426;6.934;2023-03-14T03:11:01;3.80;;;0.75;;
35026;SDS011;60696;51.426;6.934;2023-03-14T03:13:27;2.67;;;0.43;;
35026;SDS011;60696;51.426;6.934;2023-03-14T03:15:52;4.35;;;0.65;;
35026;SDS011;60696;51.426;6.934;2023-03-14T03:18:18;4.68;;;0.50;;
35026;SDS011;60696;51.426;6.934;2023-03-14T03:20:44;3.42;;;0.60;;
35026;SDS011;60696;51.426;6.934;2023-03-14T03:23:10;5.10;;;0.68;;
35026;SDS011;60696;51.426;6.934;2023-03-14T03:25:36;4.18;;;0.65;;
35026;SDS011;60696;51.426;6.934;2023-03-14T03:28:02;4.70;;;0.60;;
35026;SDS011;60696;51.426;6.934;2023-03-14T03:30:32;2.25;;;0.60;;
35026;SDS011;60696;51.426;6.934;2023-03-14T03:33:05;6.32;;;0.90;;
35026;SDS011;60696;51.426;6.934;2023-03-14T03:35:31;2.63;;;0.77;;
35026;SDS011;60696;51.426;6.934;2023-03-14T03:37:57;7.10;;;1.00;;
35026;SDS011;60696;51.426;6.934;2023-03-14T03:40:22;4.47;;;0.63;;
35026;SDS011;60696;51.426;6.934;2023-03-14T03:42:48;6.28;;;1.20;;
35026;SDS011;60696;51.426;6.934;2023-03-14T03:45:13;4.93;;;0.90;;
35026;SDS011;60696;51.426;6.934;2023-03-14T03:47:39;6.13;;;0.70;;
35026;SDS011;60696;51.426;6.934;2023-03-14T03:50:05;5.93;;;0.73;;
35026;SDS011;60696;51.426;6.934;2023-03-14T03:52:31;2.88;;;1.08;;
35026;SDS011;60696;51.426;6.934;2023-03-14T03:54:56;1.75;;;0.50;;
35026;SDS011;60696;51.426;6.934;2023-03-14T03:57:22;5.72;;;1.00;;
35026;SDS011;60696;51.426;6.934;2023-03-14T03:59:47;2.92;;;0.80;;
35026;SDS011;60696;51.426;6.934;2023-03-14T04:02:13;4.32;;;0.70;;
35026;SDS011;60696;51.426;6.934;2023-03-14T04:04:39;7.45;;;1.08;;
35026;SDS011;60696;51.426;6.934;2023-03-14T04:07:04;4.20;;;0.77;;
35026;SDS011;60696;51.426;6.934;2023-03-14T04:09:30;3.22;;;0.60;;
35026;SDS011;60696;51.426;6.934;2023-03-14T04:11:56;6.28;;;0.95;;
35026;SDS011;60696;51.426;6.934;2023-03-14T04:14:22;4.90;;;0.93;;
35026;SDS011;60696;51.426;6.934;2023-03-14T04:16:48;1.30;;;0.43;;
35026;SDS011;60696;51.426;6.934;2023-03-14T04:19:13;3.10;;;0.50;;
35026;SDS011;60696;51.426;6.934;2023-03-14T04:21:39;5.05;;;0.60;;
35026;SDS011;60696;51.426;6.934;2023-03-14T04:24:09;4.15;;;0.45;;
35026;SDS011;60696;51.426;6.934;2023-03-14T04:26:35;1.95;;;0.40;;
35026;SDS011;60696;51.426;6.934;2023-03-14T04:29:01;0.47;;;0.28;;
35026;SDS011;60696;51.426;6.934;2023-03-14T04:31:26;0.40;;;0.13;;
35026;SDS011;60696;51.426;6.934;2023-03-14T04:33:52;2.17;;;0.30;;
35026;SDS011;60696;51.426;6.934;2023-03-14T04:36:17;1.88;;;0.20;;
35026;SDS011;60696;51.426;6.934;2023-03-14T04:38:43;2.40;;;0.20;;
35026;SDS011;60696;51.426;6.934;2023-03-14T04:41:08;0.05;;;0.05;;
35026;SDS011;60696;51.426;6.934;2023-03-14T04:43:34;0.35;;;0.20;;
35026;SDS011;60696;51.426;6.934;2023-03-14T04:46:00;0.98;;;0.20;;
35026;SDS011;60696;51.426;6.934;2023-03-14T04:48:26;0.52;;;0.10;;
35026;SDS011;60696;51.426;6.934;2023-03-14T04:50:52;0.73;;;0.10;;
35026;SDS011;60696;51.426;6.934;2023-03-14T04:53:18;0.60;;;0.10;;
35026;SDS011;60696;51.426;6.934;2023-03-14T04:55:47;0.25;;;0.10;;
35026;SDS011;60696;51.426;6.934;2023-03-14T04:58:14;1.63;;;0.20;;
35026;SDS011;60696;51.426;6.934;2023-03-14T05:00:39;2.72;;;0.20;;
35026;SDS011;60696;51.426;6.934;2023-03-14T05:03:05;0.57;;;0.13;;
35026;SDS011;60696;51.426;6.934;2023-03-14T05:05:31;0.10;;;0.10;;
35026;SDS011;60696;51.426;6.934;2023-03-14T05:07:56;1.55;;;0.20;;
35026;SDS011;60696;51.426;6.934;2023-03-14T05:10:22;0.60;;;0.10;;
35026;SDS011;60696;51.426;6.934;2023-03-14T05:12:47;0.47;;;0.17;;
35026;SDS011;60696;51.426;6.934;2023-03-14T05:15:13;0.63;;;0.20;;
35026;SDS011;60696;51.426;6.934;2023-03-14T05:17:38;3.40;;;0.30;;
35026;SDS011;60696;51.426;6.934;2023-03-14T05:20:04;0.10;;;0.10;;
35026;SDS011;60696;51.426;6.934;2023-03-14T05:22:34;0.22;;;0.10;;
35026;SDS011;60696;51.426;6.934;2023-03-14T05:24:59;1.45;;;0.30;;
35026;SDS011;60696;51.426;6.934;2023-03-14T05:27:25;0.10;;;0.10;;
35026;SDS011;60696;51.426;6.934;2023-03-14T05:29:50;1.08;;;0.20;;
35026;SDS011;60696;51.426;6.934;2023-03-14T05:32:16;1.98;;;0.10;;
35026;SDS011;60696;51.426;6.934;2023-03-14T05:34:41;0.75;;;0.20;;
35026;SDS011;60696;51.426;6.934;2023-03-14T05:37:07;0.65;;;0.20;;
35026;SDS011;60696;51.426;6.934;2023-03-14T05:39:33;0.10;;;0.10;;
35026;SDS011;60696;51.426;6.934;2023-03-14T05:41:58;1.17;;;0.25;;
35026;SDS011;60696;51.426;6.934;2023-03-14T05:44:24;0.70;;;0.25;;
35026;SDS011;60696;51.426;6.934;2023-03-14T05:46:49;1.23;;;0.40;;
35026;SDS011;60696;51.426;6.934;2023-03-14T05:49:15;1.05;;;0.50;;
35026;SDS011;60696;51.426;6.934;2023-03-14T05:51:41;1.10;;;0.60;;
35026;SDS011;60696;51.426;6.934;2023-03-14T05:54:07;3.53;;;0.98;;
35026;SDS011;60696;51.426;6.934;2023-03-14T05:56:33;1.58;;;1.05;;
35026;SDS011;60696;51.426;6.934;2023-03-14T05:58:58;4.15;;;1.58;;
35026;SDS011;60696;51.426;6.934;2023-03-14T06:01:27;3.22;;;1.45;;
35026;SDS011;60696;51.426;6.934;2023-03-14T06:03:52;5.65;;;1.70;;
35026;SDS011;60696;51.426;6.934;2023-03-14T06:06:18;5.80;;;2.10;;
35026;SDS011;60696;51.426;6.934;2023-03-14T06:08:43;7.13;;;1.70;;
35026;SDS011;60696;51.426;6.934;2023-03-14T06:11:09;3.65;;;1.75;;
35026;SDS011;60696;51.426;6.934;2023-03-14T06:13:35;9.15;;;1.35;;
35026;SDS011;60696;51.426;6.934;2023-03-14T06:16:00;3.42;;;1.40;;
35026;SDS011;60696;51.426;6.934;2023-03-14T06:18:26;7.53;;;1.58;;
35026;SDS011;60696;51.426;6.934;2023-03-14T06:20:55;4.32;;;1.20;;
35026;SDS011;60696;51.426;6.934;2023-03-14T06:23:21;3.67;;;0.98;;
35026;SDS011;60696;51.426;6.934;2023-03-14T06:25:47;0.70;;;0.60;;
35026;SDS011;60696;51.426;6.934;2023-03-14T06:28:13;5.78;;;0.80;;
35026;SDS011;60696;51.426;6.934;2023-03-14T06:30:39;2.63;;;0.60;;
35026;SDS011;60696;51.426;6.934;2023-03-14T06:33:04;0.35;;;0.35;;
35026;SDS011;60696;51.426;6.934;2023-03-14T06:35:30;1.17;;;0.50;;
35026;SDS011;60696;51.426;6.934;2023-03-14T06:37:55;4.03;;;0.30;;
35026;SDS011;60696;51.426;6.934;2023-03-14T06:40:21;2.03;;;0.40;;
35026;SDS011;60696;51.426;6.934;2023-03-14T06:42:47;1.55;;;0.20;;
35026;SDS011;60696;51.426;6.934;2023-03-14T06:45:12;0.90;;;0.20;;
35026;SDS011;60696;51.426;6.934;2023-03-14T06:47:38;0.95;;;0.38;;
35026;SDS011;60696;51.426;6.934;2023-03-14T06:50:08;1.58;;;0.20;;
35026;SDS011;60696;51.426;6.934;2023-03-14T06:52:35;0.10;;;0.10;;
35026;SDS011;60696;51.426;6.934;2023-03-14T06:55:01;0.80;;;0.20;;
35026;SDS011;60696;51.426;6.934;2023-03-14T06:57:27;0.50;;;0.20;;
35026;SDS011;60696;51.426;6.934;2023-03-14T06:59:52;0.80;;;0.20;;
35026;SDS011;60696;51.426;6.934;2023-03-14T07:02:18;0.00;;;0.00;;
35026;SDS011;60696;51.426;6.934;2023-03-14T07:04:43;0.75;;;0.20;;
35026;SDS011;60696;51.426;6.934;2023-03-14T07:07:09;3.38;;;0.20;;
35026;SDS011;60696;51.426;6.934;2023-03-14T07:09:35;0.00;;;0.00;;
35026;SDS011;60696;51.426;6.934;2023-03-14T07:12:00;1.10;;;0.30;;
35026;SDS011;60696;51.426;6.934;2023-03-14T07:14:26;0.10;;;0.10;;
35026;SDS011;60696;51.426;6.934;2023-03-14T07:16:52;3.65;;;0.30;;
35026;SDS011;60696;51.426;6.934;2023-03-14T07:19:17;0.60;;;0.28;;
35026;SDS011;60696;51.426;6.934;2023-03-14T07:21:43;0.52;;;0.20;;
35026;SDS011;60696;51.426;6.934;2023-03-14T07:24:09;0.73;;;0.10;;
35026;SDS011;60696;51.426;6.934;2023-03-14T07:26:35;0.20;;;0.20;;
35026;SDS011;60696;51.426;6.934;2023-03-14T07:29:00;0.40;;;0.20;;
35026;SDS011;60696;51.426;6.934;2023-03-14T07:31:28;0.10;;;0.10;;
35026;SDS011;60696;51.426;6.934;2023-03-14T07:33:54;0.35;;;0.10;;
35026;SDS011;60696;51.426;6.934;2023-03-14T07:36:19;3.22;;;0.20;;
35026;SDS011;60696;51.426;6.934;2023-03-14T07:38:45;1.52;;;0.15;;
35026;SDS011;60696;51.426;6.934;2023-03-14T07:41:11;0.85;;;0.25;;
35026;SDS011;60696;51.426;6.934;2023-03-14T07:43:36;0.20;;;0.20;;
35026;SDS011;60696;51.426;6.934;2023-03-14T07:46:02;1.48;;;0.20;;
35026;SDS011;60696;51.426;6.934;2023-03-14T07:48:27;0.70;;;0.30;;
35026;SDS011;60696;51.426;6.934;2023-03-14T07:50:54;0.30;;;0.17;;
35026;SDS011;60696;51.426;6.934;2023-03-14T07:53:20;0.85;;;0.20;;
35026;SDS011;60696;51.426;6.934;2023-03-14T07:55:47;0.10;;;0.10;;
35026;SDS011;60696;51.426;6.934;2023-03-14T07:58:13;0.10;;;0.10;;
35026;SDS011;60696;51.426;6.934;2023-03-14T08:00:39;0.68;;;0.10;;
35026;SDS011;60696;51.426;6.934;2023-03-14T08:03:04;0.30;;;0.28;;
35026;SDS011;60696;51.426;6.934;2023-03-14T08:05:30;0.20;;;0.20;;
35026;SDS011;60696;51.426;6.934;2023-03-14T08:07:58;2.92;;;0.30;;
35026;SDS011;60696;51.426;6.934;2023-03-14T08:10:24;1.35;;;0.30;;
35026;SDS011;60696;51.426;6.934;2023-03-14T08:12:50;0.60;;;0.40;;
35026;SDS011;60696;51.426;6.934;2023-03-14T08:15:18;0.30;;;0.20;;
35026;SDS011;60696;51.426;6.934;2023-03-14T08:17:44;0.70;;;0.22;;
35026;SDS011;60696;51.426;6.934;2023-03-14T08:20:09;0.47;;;0.38;;
35026;SDS011;60696;51.426;6.934;2023-03-14T08:22:37;0.60;;;0.50;;
35026;SDS011;60696;51.426;6.934;2023-03-14T08:25:03;2.35;;;0.40;;
35026;SDS011;60696;51.426;6.934;2023-03-14T08:27:29;2.72;;;0.40;;
35026;SDS011;60696;51.426;6.934;2023-03-14T08:29:55;0.60;;;0.47;;
35026;SDS011;60696;51.426;6.934;2023-03-14T08:32:21;0.40;;;0.30;;
35026;SDS011;60696;51.426;6.934;2023-03-14T08:34:48;0.52;;;0.38;;
35026;SDS011;60696;51.426;6.934;2023-03-14T08:37:14;0.47;;;0.32;;
35026;SDS011;60696;51.426;6.934;2023-03-14T08:39:40;1.23;;;0.47;;
35026;SDS011;60696;51.426;6.934;2023-03-14T08:42:05;1.33;;;0.30;;
35026;SDS011;60696;51.426;6.934;2023-03-14T08:44:31;1.80;;;0.52;;
35026;SDS011;60696;51.426;6.934;2023-03-14T08:46:56;1.23;;;0.50;;
35026;SDS011;60696;51.426;6.934;2023-03-14T08:49:22;1.27;;;0.60;;
35026;SDS011;60696;51.426;6.934;2023-03-14T08:51:48;1.35;;;0.43;;
35026;SDS011;60696;51.426;6.934;2023-03-14T08:54:13;0.63;;;0.57;;
35026;SDS011;60696;51.426;6.934;2023-03-14T08:56:39;3.00;;;0.85;;
35026;SDS011;60696;51.426;6.934;2023-03-14T08:59:05;0.40;;;0.40;;
35026;SDS011;60696;51.426;6.934;2023-03-14T09:01:31;1.33;;;0.73;;
35026;SDS011;60696;51.426;6.934;2023-03-14T09:03:56;2.30;;;1.02;;
35026;SDS011;60696;51.426;6.934;2023-03-14T09:06:22;3.45;;;1.00;;
35026;SDS011;60696;51.426;6.934;2023-03-14T09:08:48;2.00;;;1.23;;
35026;SDS011;60696;51.426;6.934;2023-03-14T09:11:13;1.17;;;1.02;;
35026;SDS011;60696;51.426;6.934;2023-03-14T09:13:39;2.00;;;1.20;;
35026;SDS011;60696;51.426;6.934;2023-03-14T09:16:05;2.72;;;1.77;;
35026;SDS011;60696;51.426;6.934;2023-03-14T09:18:32;7.68;;;1.73;;
35026;SDS011;60696;51.426;6.934;2023-03-14T09:20:57;1.90;;;1.25;;
35026;SDS011;60696;51.426;6.934;2023-03-14T09:23:23;0.50;;;0.40;;
35026;SDS011;60696;51.426;6.934;2023-03-14T09:25:49;0.93;;;0.47;;
35026;SDS011;60696;51.426;6.934;2023-03-14T09:28:18;0.68;;;0.43;;
35026;SDS011;60696;51.426;6.934;2023-03-14T09:30:44;0.43;;;0.22;;
35026;SDS011;60696;51.426;6.934;2023-03-14T09:33:09;2.80;;;0.40;;
35026;SDS011;60696;51.426;6.934;2023-03-14T09:35:35;2.08;;;0.40;;
35026;SDS011;60696;51.426;6.934;2023-03-14T09:38:01;1.15;;;0.52;;
35026;SDS011;60696;51.426;6.934;2023-03-14T09:40:27;4.18;;;0.70;;
35026;SDS011;60696;51.426;6.934;2023-03-14T09:42:58;2.13;;;0.47;;
35026;SDS011;60696;51.426;6.934;2023-03-14T09:45:27;0.75;;;0.30;;
35026;SDS011;60696;51.426;6.934;2023-03-14T09:47:59;3.15;;;0.50;;
35026;SDS011;60696;51.426;6.934;2023-03-14T09:50:27;1.35;;;0.95;;
35026;SDS011;60696;51.426;6.934;2023-03-14T09:53:04;0.63;;;0.50;;
35026;SDS011;60696;51.426;6.934;2023-03-14T09:55:36;1.52;;;0.32;;
35026;SDS011;60696;51.426;6.934;2023-03-14T09:58:03;0.65;;;0.50;;
35026;SDS011;60696;51.426;6.934;2023-03-14T10:00:34;1.48;;;0.80;;
35026;SDS011;60696;51.426;6.934;2023-03-14T10:05:38;1.30;;;0.40;;
35026;SDS011;60696;51.426;6.934;2023-03-14T10:08:05;2.30;;;1.10;;
35026;SDS011;60696;51.426;6.934;2023-03-14T10:10:31;2.65;;;1.20;;
35026;SDS011;60696;51.426;6.934;2023-03-14T10:15:35;4.32;;;1.00;;
35026;SDS011;60696;51.426;6.934;2023-03-14T10:18:02;1.70;;;1.02;;
35026;SDS011;60696;51.426;6.934;2023-03-14T10:20:37;1.67;;;1.05;;
35026;SDS011;60696;51.426;6.934;2023-03-14T10:23:16;5.63;;;1.63;;
35026;SDS011;60696;51.426;6.934;2023-03-14T10:26:13;4.57;;;1.67;;
35026;SDS011;60696;51.426;6.934;2023-03-14T10:28:40;1.35;;;0.82;;
35026;SDS011;60696;51.426;6.934;2023-03-14T10:31:09;5.90;;;1.48;;
35026;SDS011;60696;51.426;6.934;2023-03-14T10:33:35;1.75;;;1.20;;
35026;SDS011;60696;51.426;6.934;2023-03-14T10:36:03;7.00;;;1.15;;
35026;SDS011;60696;51.426;6.934;2023-03-14T10:38:44;3.35;;;1.30;;
35026;SDS011;60696;51.426;6.934;2023-03-14T10:41:23;4.00;;;1.15;;
35026;SDS011;60696;51.426;6.934;2023-03-14T10:43:56;2.05;;;1.13;;
35026;SDS011;60696;51.426;6.934;2023-03-14T10:46:24;1.58;;;0.95;;
35026;SDS011;60696;51.426;6.934;2023-03-14T10:48:53;1.33;;;0.80;;
35026;SDS011;60696;51.426;6.934;2023-03-14T10:51:26;4.70;;;1.08;;
35026;SDS011;60696;51.426;6.934;2023-03-14T10:54:04;3.72;;;0.82;;
35026;SDS011;60696;51.426;6.934;2023-03-14T10:56:57;2.70;;;0.90;;
35026;SDS011;60696;51.426;6.934;2023-03-14T10:59:29;2.42;;;0.60;;
35026;SDS011;60696;51.426;6.934;2023-03-14T11:02:25;0.57;;;0.40;;
35026;SDS011;60696;51.426;6.934;2023-03-14T11:07:43;2.22;;;0.70;;
35026;SDS011;60696;51.426;6.934;2023-03-14T11:23:58;0.60;;;0.50;;
35026;SDS011;60696;51.426;6.934;2023-03-14T11:26:42;3.10;;;0.43;;
35026;SDS011;60696;51.426;6.934;2023-03-14T11:31:54;1.08;;;0.50;;
35026;SDS011;60696;51.426;6.934;2023-03-14T11:34:33;2.40;;;0.73;;
35026;SDS011;60696;51.426;6.934;2023-03-14T11:37:17;0.30;;;0.20;;
35026;SDS011;60696;51.426;6.934;2023-03-14T11:42:54;2.35;;;0.57;;
35026;SDS011;60696;51.426;6.934;2023-03-14T11:45:32;1.02;;;0.25;;
35026;SDS011;60696;51.426;6.934;2023-03-14T11:50:35;0.43;;;0.20;;
35026;SDS011;60696;51.426;6.934;2023-03-14T11:53:09;1.27;;;0.55;;
35026;SDS011;60696;51.426;6.934;2023-03-14T11:55:44;3.13;;;0.40;;
35026;SDS011;60696;51.426;6.934;2023-03-14T12:00:50;1.67;;;0.40;;
35026;SDS011;60696;51.426;6.934;2023-03-14T12:03:24;0.80;;;0.30;;
35026;SDS011;60696;51.426;6.934;2023-03-14T12:06:17;2.28;;;0.57;;
35026;SDS011;60696;51.426;6.934;2023-03-14T12:08:46;2.88;;;0.63;;
35026;SDS011;60696;51.426;6.934;2023-03-14T12:11:18;4.45;;;0.98;;
35026;SDS011;60696;51.426;6.934;2023-03-14T12:13:59;4.78;;;0.80;;
35026;SDS011;60696;51.426;6.934;2023-03-14T12:16:33;2.88;;;0.73;;
35026;SDS011;60696;51.426;6.934;2023-03-14T12:19:13;1.83;;;0.80;;
35026;SDS011;60696;51.426;6.934;2023-03-14T12:21:50;2.35;;;0.40;;
35026;SDS011;60696;51.426;6.934;2023-03-14T12:24:28;2.38;;;0.45;;
35026;SDS011;60696;51.426;6.934;2023-03-14T12:26:57;1.77;;;0.52;;
35026;SDS011;60696;51.426;6.934;2023-03-14T12:29:25;2.33;;;0.43;;
35026;SDS011;60696;51.426;6.934;2023-03-14T12:34:26;3.80;;;0.52;;
35026;SDS011;60696;51.426;6.934;2023-03-14T12:37:04;4.63;;;0.80;;
35026;SDS011;60696;51.426;6.934;2023-03-14T12:42:51;12.02;;;1.13;;
35026;SDS011;60696;51.426;6.934;2023-03-14T12:50:45;3.40;;;0.65;;
35026;SDS011;60696;51.426;6.934;2023-03-14T12:56:16;11.23;;;1.38;;
35026;SDS011;60696;51.426;6.934;2023-03-14T12:59:04;1.40;;;0.43;;
35026;SDS011;60696;51.426;6.934;2023-03-14T13:01:56;7.75;;;0.98;;
35026;SDS011;60696;51.426;6.934;2023-03-14T13:04:35;5.82;;;0.93;;
35026;SDS011;60696;51.426;6.934;2023-03-14T13:08:02;7.75;;;1.00;;
35026;SDS011;60696;51.426;6.934;2023-03-14T13:12:29;8.25;;;1.17;;
35026;SDS011;60696;51.426;6.934;2023-03-14T13:15:01;11.38;;;1.23;;
35026;SDS011;60696;51.426;6.934;2023-03-14T13:17:39;23.98;;;1.58;;
35026;SDS011;60696;51.426;6.934;2023-03-14T13:20:27;9.85;;;1.15;;
35026;SDS011;60696;51.426;6.934;2023-03-14T13:22:53;8.55;;;1.23;;
35026;SDS011;60696;51.426;6.934;2023-03-14T13:25:19;8.52;;;1.15;;
35026;SDS011;60696;51.426;6.934;2023-03-14T13:27:47;7.72;;;1.15;;
35026;SDS011;60696;51.426;6.934;2023-03-14T13:30:24;10.05;;;1.33;;
35026;SDS011;60696;51.426;6.934;2023-03-14T13:33:02;9.63;;;1.35;;
35026;SDS011;60696;51.426;6.934;2023-03-14T13:35:37;8.00;;;1.55;;
35026;SDS011;60696;51.426;6.934;2023-03-14T13:38:16;9.98;;;1.27;;
35026;SDS011;60696;51.426;6.934;2023-03-14T13:40:45;8.60;;;1.20;;
35026;SDS011;60696;51.426;6.934;2023-03-14T13:45:47;8.23;;;1.00;;
35026;SDS011;60696;51.426;6.934;2023-03-14T13:48:18;10.68;;;1.65;;
35026;SDS011;60696;51.426;6.934;2023-03-14T13:50:49;11.30;;;1.60;;
35026;SDS011;60696;51.426;6.934;2023-03-14T13:53:17;18.15;;;2.13;;
35026;SDS011;60696;51.426;6.934;2023-03-14T13:55:43;13.60;;;2.45;;
35026;SDS011;60696;51.426;6.934;2023-03-14T13:58:11;10.07;;;1.25;;
35026;SDS011;60696;51.426;6.934;2023-03-14T14:00:52;9.82;;;1.80;;
35026;SDS011;60696;51.426;6.934;2023-03-14T14:03:30;14.02;;;1.73;;
35026;SDS011;60696;51.426;6.934;2023-03-14T14:05:58;12.80;;;1.33;;
35026;SDS011;60696;51.426;6.934;2023-03-14T14:08:24;11.18;;;1.55;;
35026;SDS011;60696;51.426;6.934;2023-03-14T14:10:50;14.15;;;1.52;;
35026;SDS011;60696;51.426;6.934;2023-03-14T14:13:22;15.02;;;1.95;;
35026;SDS011;60696;51.426;6.934;2023-03-14T14:15:50;13.90;;;1.50;;
35026;SDS011;60696;51.426;6.934;2023-03-14T14:18:18;10.68;;;1.90;;
35026;SDS011;60696;51.426;6.934;2023-03-14T14:20:50;10.85;;;1.92;;
35026;SDS011;60696;51.426;6.934;2023-03-14T14:23:22;8.98;;;1.30;;
35026;SDS011;60696;51.426;6.934;2023-03-14T14:25:53;18.85;;;2.35;;
35026;SDS011;60696;51.426;6.934;2023-03-14T14:30:59;11.73;;;1.27;;
35026;SDS011;60696;51.426;6.934;2023-03-14T14:33:27;1.98;;;0.40;;
35026;SDS011;60696;51.426;6.934;2023-03-14T14:35:57;6.07;;;0.80;;
35026;SDS011;60696;51.426;6.934;2023-03-14T14:38:25;8.73;;;1.50;;
35026;SDS011;60696;51.426;6.934;2023-03-14T14:40:53;9.35;;;1.45;;
35026;SDS011;60696;51.426;6.934;2023-03-14T14:43:22;11.40;;;1.40;;
35026;SDS011;60696;51.426;6.934;2023-03-14T14:45:50;13.30;;;1.33;;
35026;SDS011;60696;51.426;6.934;2023-03-14T14:48:24;6.60;;;1.38;;
35026;SDS011;60696;51.426;6.934;2023-03-14T14:50:56;9.18;;;1.08;;
35026;SDS011;60696;51.426;6.934;2023-03-14T14:53:38;4.30;;;0.80;;
35026;SDS011;60696;51.426;6.934;2023-03-14T14:56:15;3.63;;;0.55;;
35026;SDS011;60696;51.426;6.934;2023-03-14T15:01:14;4.03;;;0.90;;
35026;SDS011;60696;51.426;6.934;2023-03-14T15:03:42;5.13;;;0.70;;
35026;SDS011;60696;51.426;6.934;2023-03-14T15:06:10;6.32;;;0.93;;
35026;SDS011;60696;51.426;6.934;2023-03-14T15:08:37;4.10;;;0.82;;
35026;SDS011;60696;51.426;6.934;2023-03-14T15:11:03;9.77;;;1.30;;
35026;SDS011;60696;51.426;6.934;2023-03-14T15:13:29;5.55;;;1.08;;
35026;SDS011;60696;51.426;6.934;2023-03-14T15:15:55;9.27;;;1.13;;
35026;SDS011;60696;51.426;6.934;2023-03-14T15:18:22;7.50;;;0.88;;
35026;SDS011;60696;51.426;6.934;2023-03-14T15:20:49;9.20;;;0.77;;
35026;SDS011;60696;51.426;6.934;2023-03-14T15:23:16;3.05;;;0.80;;
35026;SDS011;60696;51.426;6.934;2023-03-14T15:25:46;4.40;;;0.77;;
35026;SDS011;60696;51.426;6.934;2023-03-14T15:28:17;5.30;;;0.75;;
35026;SDS011;60696;51.426;6.934;2023-03-14T15:30:50;3.55;;;0.50;;
35026;SDS011;60696;51.426;6.934;2023-03-14T15:33:18;8.93;;;0.88;;
35026;SDS011;60696;51.426;6.934;2023-03-14T15:35:43;5.15;;;1.10;;
35026;SDS011;60696;51.426;6.934;2023-03-14T15:38:11;4.80;;;0.80;;
35026;SDS011;60696;51.426;6.934;2023-03-14T15:40:37;1.48;;;0.35;;
35026;SDS011;60696;51.426;6.934;2023-03-14T15:43:03;4.45;;;0.70;;
35026;SDS011;60696;51.426;6.934;2023-03-14T15:45:29;7.72;;;0.73;;
35026;SDS011;60696;51.426;6.934;2023-03-14T15:47:55;3.08;;;0.57;;
35026;SDS011;60696;51.426;6.934;2023-03-14T15:50:21;3.92;;;0.60;;
35026;SDS011;60696;51.426;6.934;2023-03-14T15:52:47;5.72;;;0.75;;
35026;SDS011;60696;51.426;6.934;2023-03-14T15:55:13;8.45;;;0.70;;